createdAt,value
2018-01-12T00:00:55.894Z,5.90
2018-01-12T00:03:24.202Z,6.00
2018-01-12T00:05:51.719Z,5.90
2018-01-12T00:08:20.004Z,5.80
2018-01-12T00:10:48.311Z,5.80
2018-01-12T00:13:15.842Z,5.80
2018-01-12T00:15:44.139Z,5.80
2018-01-12T00:18:11.646Z,5.80
2018-01-12T00:20:39.158Z,5.90
2018-01-12T00:23:06.691Z,5.90
2018-01-12T00:25:35.045Z,5.90
2018-01-12T00:28:02.573Z,5.90
2018-01-12T00:30:30.117Z,6.00
2018-01-12T00:32:57.627Z,5.90
2018-01-12T00:35:25.161Z,5.90
2018-01-12T00:37:52.692Z,5.90
2018-01-12T00:40:20.207Z,5.90
2018-01-12T00:42:48.638Z,5.90
2018-01-12T00:45:16.150Z,5.90
2018-01-12T00:47:44.471Z,5.80
2018-01-12T00:50:11.999Z,5.80
2018-01-12T00:52:40.275Z,5.80
2018-01-12T00:55:08.604Z,5.80
2018-01-12T00:57:36.182Z,5.70
2018-01-12T01:00:03.680Z,5.70
2018-01-12T01:02:31.209Z,5.70
2018-01-12T01:04:58.743Z,5.70
2018-01-12T01:07:26.260Z,5.70
2018-01-12T01:09:59.478Z,5.60
2018-01-12T01:12:27.003Z,5.70
2018-01-12T01:14:54.555Z,5.60
2018-01-12T01:17:22.839Z,5.50
2018-01-12T01:19:50.338Z,5.50
2018-01-12T01:22:17.888Z,5.50
2018-01-12T01:24:45.411Z,5.50
2018-01-12T01:27:12.947Z,5.60
2018-01-12T01:29:40.464Z,5.60
2018-01-12T01:32:08.038Z,5.50
2018-01-12T01:34:35.568Z,5.60
2018-01-12T01:37:03.107Z,5.60
2018-01-12T01:39:30.638Z,5.70
2018-01-12T01:41:58.142Z,5.70
2018-01-12T01:44:25.692Z,5.70
2018-01-12T01:46:53.204Z,5.70
2018-01-12T01:49:20.744Z,5.70
2018-01-12T01:51:48.368Z,5.80
2018-01-12T01:54:15.879Z,5.80
2018-01-12T01:56:43.406Z,5.80
2018-01-12T01:59:10.972Z,5.70
2018-01-12T02:01:38.496Z,5.70
2018-01-12T02:04:06.065Z,5.80
2018-01-12T02:06:33.616Z,5.80
2018-01-12T02:09:01.175Z,5.80
2018-01-12T02:11:28.696Z,5.90
2018-01-12T02:13:56.244Z,5.90
2018-01-12T02:16:23.750Z,5.90
2018-01-12T02:18:51.283Z,6.00
2018-01-12T02:21:18.800Z,5.90
2018-01-12T02:23:46.388Z,6.00
2018-01-12T02:26:13.937Z,5.90
2018-01-12T02:28:41.472Z,5.90
2018-01-12T02:31:08.999Z,5.90
2018-01-12T02:33:36.530Z,5.90
2018-01-12T02:36:04.108Z,5.90
2018-01-12T02:38:32.411Z,5.90
2018-01-12T02:40:59.921Z,5.80
2018-01-12T02:43:27.474Z,5.80
2018-01-12T02:45:55.009Z,5.80
2018-01-12T02:48:22.523Z,5.80
2018-01-12T02:50:50.835Z,5.80
2018-01-12T02:53:18.348Z,5.70
2018-01-12T02:55:45.901Z,5.70
2018-01-12T02:58:13.419Z,5.70
2018-01-12T03:00:40.953Z,5.70
2018-01-12T03:03:08.474Z,5.60
2018-01-12T03:05:36.007Z,5.60
2018-01-12T03:08:03.528Z,5.60
2018-01-12T03:10:31.060Z,5.60
2018-01-12T03:12:58.633Z,5.60
2018-01-12T03:15:26.903Z,5.50
2018-01-12T03:17:54.466Z,5.50
2018-01-12T03:20:22.003Z,5.50
2018-01-12T03:22:49.550Z,5.50
2018-01-12T03:25:17.061Z,5.50
2018-01-12T03:27:44.608Z,5.40
2018-01-12T03:30:12.156Z,5.40
2018-01-12T03:32:39.657Z,5.40
2018-01-12T03:35:07.165Z,5.40
2018-01-12T03:37:34.710Z,5.50
2018-01-12T03:40:02.244Z,5.40
2018-01-12T03:42:29.753Z,5.20
2018-01-12T03:44:58.072Z,5.20
2018-01-12T03:47:25.603Z,5.20
2018-01-12T03:49:53.147Z,5.30
2018-01-12T03:52:21.446Z,5.20
2018-01-12T03:54:48.951Z,5.20
2018-01-12T03:57:16.488Z,5.20
2018-01-12T03:59:43.995Z,5.20
2018-01-12T04:02:12.317Z,5.20
2018-01-12T04:04:39.823Z,5.20
2018-01-12T04:07:08.095Z,5.10
2018-01-12T04:09:35.665Z,5.10
2018-01-12T04:12:03.196Z,5.10
2018-01-12T04:14:30.739Z,5.00
2018-01-12T04:16:58.325Z,5.00
2018-01-12T04:19:25.844Z,5.00
2018-01-12T04:21:53.376Z,5.00
2018-01-12T04:24:20.906Z,5.00
2018-01-12T04:26:49.246Z,4.90
2018-01-12T04:29:16.874Z,4.90
2018-01-12T04:31:44.397Z,4.90
2018-01-12T04:34:11.928Z,4.90
2018-01-12T04:36:39.433Z,4.90
2018-01-12T04:39:07.715Z,4.80
2018-01-12T04:41:36.024Z,4.80
2018-01-12T04:44:03.536Z,4.80
2018-01-12T04:46:31.835Z,4.80
2018-01-12T04:48:59.356Z,4.80
2018-01-12T04:51:26.895Z,4.80
2018-01-12T04:53:54.396Z,4.80
2018-01-12T04:56:22.713Z,4.80
2018-01-12T04:58:50.236Z,4.80
2018-01-12T05:01:17.788Z,4.70
2018-01-12T05:03:46.091Z,4.80
2018-01-12T05:06:13.634Z,4.80
2018-01-12T05:08:41.952Z,4.80
2018-01-12T05:11:09.457Z,4.70
2018-01-12T05:13:37.736Z,4.80
2018-01-12T05:16:06.051Z,4.80
2018-01-12T05:18:33.568Z,4.80
2018-01-12T05:21:01.868Z,4.80
2018-01-12T05:23:29.386Z,4.70
2018-01-12T05:25:56.929Z,4.80
2018-01-12T05:28:24.434Z,4.80
2018-01-12T05:30:51.955Z,4.70
2018-01-12T05:33:19.480Z,4.60
2018-01-12T05:35:47.010Z,4.60
2018-01-12T05:38:14.553Z,4.70
2018-01-12T05:40:42.081Z,4.70
2018-01-12T05:43:09.605Z,4.60
2018-01-12T05:45:37.124Z,4.70
2018-01-12T05:48:04.643Z,4.70
2018-01-12T05:50:32.199Z,4.70
2018-01-12T05:52:59.778Z,4.60
2018-01-12T05:55:27.282Z,4.60
2018-01-12T05:57:55.577Z,4.60
2018-01-12T06:00:23.087Z,4.50
2018-01-12T06:03:02.380Z,4.60
2018-01-12T06:05:41.804Z,4.50
2018-01-12T06:08:09.355Z,4.40
2018-01-12T06:10:36.877Z,4.40
2018-01-12T06:13:04.382Z,4.40
2018-01-12T06:15:31.920Z,4.40
2018-01-12T06:18:00.213Z,4.40
2018-01-12T06:20:27.754Z,4.30
2018-01-12T06:22:56.016Z,4.30
2018-01-12T06:25:24.313Z,4.40
2018-01-12T06:27:52.595Z,4.50
2018-01-12T06:30:20.172Z,4.50
2018-01-12T06:32:47.702Z,4.40
2018-01-12T06:35:15.995Z,4.50
2018-01-12T06:37:43.532Z,4.40
2018-01-12T06:40:11.813Z,4.50
2018-01-12T06:42:40.112Z,4.50
2018-01-12T06:45:07.632Z,4.50
2018-01-12T06:47:35.132Z,4.60
2018-01-12T06:50:02.734Z,4.60
2018-01-12T06:52:30.271Z,4.60
2018-01-12T06:54:57.800Z,4.50
2018-01-12T06:57:25.307Z,4.60
2018-01-12T06:59:52.844Z,4.60
2018-01-12T07:02:20.366Z,4.60
2018-01-12T07:04:47.891Z,4.60
2018-01-12T07:07:15.420Z,4.60
2018-01-12T07:09:42.935Z,4.60
2018-01-12T07:12:11.233Z,4.60
2018-01-12T07:14:38.758Z,4.60
2018-01-12T07:17:06.260Z,4.70
2018-01-12T07:19:33.808Z,4.60
2018-01-12T07:22:13.093Z,4.60
2018-01-12T07:24:40.647Z,4.60
2018-01-12T07:27:08.215Z,4.70
2018-01-12T07:29:35.736Z,4.70
2018-01-12T07:32:03.300Z,4.80
2018-01-12T07:34:30.817Z,4.80
2018-01-12T07:36:58.378Z,4.80
2018-01-12T07:39:25.898Z,4.90
2018-01-12T07:41:53.419Z,4.80
2018-01-12T07:44:20.956Z,4.90
2018-01-12T07:46:48.463Z,4.90
2018-01-12T07:49:16.035Z,4.90
2018-01-12T07:51:43.568Z,4.90
2018-01-12T07:54:11.100Z,5.00
2018-01-12T07:56:38.637Z,5.00
2018-01-12T07:59:06.913Z,5.00
2018-01-12T08:01:40.833Z,5.10
2018-01-12T08:04:08.341Z,5.00
2018-01-12T08:06:35.850Z,5.10
2018-01-12T08:09:03.432Z,5.20
2018-01-12T08:11:31.752Z,5.20
2018-01-12T08:13:59.305Z,5.20
2018-01-12T08:16:26.815Z,5.20
2018-01-12T08:18:55.254Z,5.20
2018-01-12T08:21:23.570Z,5.30
2018-01-12T08:23:52.297Z,5.20
2018-01-12T08:26:20.048Z,5.30
2018-01-12T08:28:47.551Z,5.50
2018-01-12T08:31:15.851Z,5.40
2018-01-12T08:33:43.394Z,5.40
2018-01-12T08:36:11.702Z,5.60
2018-01-12T08:38:39.826Z,5.60
2018-01-12T08:41:07.377Z,5.60
2018-01-12T08:43:34.878Z,5.70
2018-01-12T08:46:02.382Z,5.60
2018-01-12T08:48:29.944Z,5.70
2018-01-12T08:50:57.447Z,5.60
2018-01-12T08:53:24.966Z,5.70
2018-01-12T08:55:52.499Z,5.80
2018-01-12T08:58:20.020Z,5.80
2018-01-12T09:00:47.565Z,5.90
2018-01-12T09:03:15.962Z,6.10
2018-01-12T09:05:43.481Z,6.00
2018-01-12T09:08:10.983Z,6.10
2018-01-12T09:10:38.541Z,6.10
2018-01-12T09:13:06.065Z,6.10
2018-01-12T09:15:33.587Z,6.10
2018-01-12T09:18:01.135Z,6.20
2018-01-12T09:20:34.127Z,6.20
2018-01-12T09:23:10.500Z,6.10
2018-01-12T09:25:38.023Z,6.10
2018-01-12T09:28:05.541Z,6.20
2018-01-12T09:30:33.093Z,6.30
2018-01-12T09:33:00.603Z,6.40
2018-01-12T09:35:28.127Z,6.90
2018-01-12T09:38:07.603Z,7.30
2018-01-12T09:40:48.190Z,7.40
2018-01-12T09:43:15.719Z,7.20
2018-01-12T09:45:43.240Z,6.90
2018-01-12T09:48:37.558Z,6.90
2018-01-12T09:51:05.836Z,7.20
2018-01-12T09:53:34.192Z,7.30
2018-01-12T09:56:01.715Z,7.30
2018-01-12T09:58:29.338Z,7.30
2018-01-12T10:01:00.269Z,7.20
2018-01-12T10:03:27.799Z,7.40
2018-01-12T10:05:55.329Z,7.30
2018-01-12T10:08:25.538Z,7.50
2018-01-12T10:10:53.043Z,7.60
2018-01-12T10:13:20.573Z,7.70
2018-01-12T10:15:48.107Z,7.70
2018-01-12T10:18:27.476Z,7.70
2018-01-12T10:20:55.051Z,7.80
2018-01-12T10:23:22.612Z,7.70
2018-01-12T10:25:51.027Z,7.20
2018-01-12T10:28:18.547Z,7.50
2018-01-12T10:30:58.093Z,7.60
2018-01-12T10:33:31.578Z,7.90
2018-01-12T10:35:59.134Z,8.00
2018-01-12T10:38:26.643Z,7.90
2018-01-12T10:40:54.185Z,8.10
2018-01-12T10:43:22.479Z,7.70
2018-01-12T10:46:08.823Z,7.70
2018-01-12T10:48:40.175Z,7.10
2018-01-12T10:51:16.722Z,7.50
2018-01-12T10:53:44.231Z,7.60
2018-01-12T10:56:11.780Z,7.80
2018-01-12T10:58:39.341Z,8.00
2018-01-12T11:01:08.611Z,8.00
2018-01-12T11:03:36.173Z,8.00
2018-01-12T11:06:04.271Z,8.00
2018-01-12T11:08:31.824Z,7.90
2018-01-12T11:10:59.359Z,8.10
2018-01-12T11:13:26.881Z,8.20
2018-01-12T11:15:54.426Z,8.30
2018-01-12T11:18:22.702Z,8.20
2018-01-12T11:20:50.224Z,8.20
2018-01-12T11:23:17.759Z,7.60
2018-01-12T11:25:45.310Z,7.60
2018-01-12T11:28:12.835Z,7.40
2018-01-12T11:30:40.430Z,7.30
2018-01-12T11:33:07.942Z,7.60
2018-01-12T11:35:36.223Z,7.90
2018-01-12T11:38:04.546Z,7.80
2018-01-12T11:40:32.080Z,7.80
2018-01-12T11:42:59.591Z,7.80
2018-01-12T11:45:27.152Z,7.70
2018-01-12T11:47:54.703Z,7.60
2018-01-12T11:50:22.247Z,7.80
2018-01-12T11:52:49.778Z,7.90
2018-01-12T11:55:17.379Z,7.70
2018-01-12T11:57:44.901Z,7.60
2018-01-12T12:00:12.423Z,7.80
2018-01-12T12:02:39.950Z,7.90
2018-01-12T12:05:07.457Z,8.10
2018-01-12T12:07:35.840Z,8.40
2018-01-12T12:10:03.472Z,8.40
2018-01-12T12:12:31.094Z,8.40
2018-01-12T12:14:58.656Z,8.50
2018-01-12T12:17:26.185Z,8.60
2018-01-12T12:19:53.736Z,8.50
2018-01-12T12:22:22.027Z,8.10
2018-01-12T12:24:49.578Z,8.10
2018-01-12T12:27:17.124Z,7.70
2018-01-12T12:29:45.413Z,7.80
2018-01-12T12:32:12.963Z,7.80
2018-01-12T12:34:41.262Z,8.00
2018-01-12T12:37:08.776Z,7.90
2018-01-12T12:39:36.335Z,8.00
2018-01-12T12:42:03.857Z,7.90
2018-01-12T12:44:31.401Z,7.80
2018-01-12T12:46:58.957Z,7.90
2018-01-12T12:49:26.526Z,7.90
2018-01-12T12:51:54.087Z,8.00
2018-01-12T12:54:21.593Z,8.20
2018-01-12T12:56:49.152Z,8.20
2018-01-12T12:59:16.705Z,8.10
2018-01-12T13:01:44.237Z,8.10
2018-01-12T13:04:11.776Z,8.20
2018-01-12T13:06:39.315Z,8.00
2018-01-12T13:09:07.591Z,8.10
2018-01-12T13:11:35.164Z,8.10
2018-01-12T13:14:02.704Z,7.90
2018-01-12T13:16:31.160Z,7.80
2018-01-12T13:18:58.693Z,7.90
2018-01-12T13:21:26.216Z,7.90
2018-01-12T13:23:53.795Z,7.90
2018-01-12T13:26:21.347Z,7.90
2018-01-12T13:28:48.864Z,7.90
2018-01-12T13:31:17.173Z,7.40
2018-01-12T13:33:44.701Z,7.40
2018-01-12T13:36:13.006Z,7.50
2018-01-12T13:38:40.563Z,7.50
2018-01-12T13:41:08.147Z,7.50
2018-01-12T13:43:35.656Z,7.60
2018-01-12T13:46:03.984Z,7.80
2018-01-12T13:48:31.535Z,7.70
2018-01-12T13:50:59.064Z,7.80
2018-01-12T13:53:27.378Z,8.40
2018-01-12T13:55:54.896Z,8.40
2018-01-12T13:58:23.186Z,8.00
2018-01-12T14:00:50.729Z,7.90
2018-01-12T14:03:19.039Z,8.00
2018-01-12T14:05:46.569Z,7.90
2018-01-12T14:08:14.880Z,7.90
2018-01-12T14:10:42.406Z,7.90
2018-01-12T14:13:10.734Z,7.90
2018-01-12T14:15:38.285Z,7.90
2018-01-12T14:18:05.790Z,7.80
2018-01-12T14:20:33.347Z,7.70
2018-01-12T14:23:00.927Z,7.40
2018-01-12T14:25:28.441Z,7.60
2018-01-12T14:27:55.981Z,7.80
2018-01-12T14:30:23.489Z,7.80
2018-01-12T14:32:51.788Z,7.80
2018-01-12T14:35:19.318Z,7.80
2018-01-12T14:37:47.638Z,8.00
2018-01-12T14:40:15.162Z,8.00
2018-01-12T14:42:43.492Z,8.00
2018-01-12T14:45:11.048Z,7.90
2018-01-12T14:47:38.568Z,8.00
2018-01-12T14:50:06.132Z,7.90
2018-01-12T14:52:33.643Z,7.90
2018-01-12T14:55:01.208Z,7.70
2018-01-12T14:57:28.724Z,7.70
2018-01-12T14:59:56.451Z,7.80
2018-01-12T15:02:24.125Z,7.70
2018-01-12T15:04:51.668Z,7.50
2018-01-12T15:07:19.230Z,7.20
2018-01-12T15:09:46.844Z,7.30
2018-01-12T15:12:15.355Z,7.30
2018-01-12T15:14:44.852Z,7.30
2018-01-12T15:17:12.434Z,7.30
2018-01-12T15:19:41.494Z,7.10
2018-01-12T15:22:09.816Z,7.00
2018-01-12T15:24:38.302Z,7.00
2018-01-12T15:27:05.853Z,7.00
2018-01-12T15:29:34.179Z,7.00
2018-01-12T15:32:03.340Z,7.00
2018-01-12T15:34:33.838Z,7.00
2018-01-12T15:37:02.409Z,7.00
2018-01-12T15:39:31.169Z,7.00
2018-01-12T15:42:00.332Z,7.00
2018-01-12T15:44:30.236Z,7.10
2018-01-12T15:46:58.765Z,7.10
2018-01-12T15:49:26.354Z,7.10
2018-01-12T15:51:53.911Z,7.10
2018-01-12T15:54:21.489Z,7.00
2018-01-12T15:56:49.826Z,6.90
2018-01-12T15:59:17.339Z,6.90
2018-01-12T16:01:44.878Z,7.00
2018-01-12T16:04:12.431Z,6.80
2018-01-12T16:06:39.967Z,6.80
2018-01-12T16:09:07.484Z,6.80
2018-01-12T16:11:35.089Z,6.80
2018-01-12T16:14:02.647Z,6.80
2018-01-12T16:16:30.193Z,6.70
2018-01-12T16:18:57.756Z,6.80
2018-01-12T16:21:25.287Z,6.80
2018-01-12T16:23:52.850Z,6.80
2018-01-12T16:26:21.192Z,6.90
2018-01-12T16:28:49.514Z,6.80
2018-01-12T16:31:17.039Z,6.80
2018-01-12T16:33:45.392Z,6.50
2018-01-12T16:36:12.928Z,6.50
2018-01-12T16:38:40.499Z,6.50
2018-01-12T16:41:08.036Z,6.60
2018-01-12T16:43:35.550Z,6.50
2018-01-12T16:46:03.882Z,6.50
2018-01-12T16:48:31.424Z,6.50
2018-01-12T16:50:58.975Z,6.60
2018-01-12T16:53:26.509Z,6.60
2018-01-12T16:55:54.816Z,6.50
2018-01-12T16:58:23.116Z,6.40
2018-01-12T17:00:50.663Z,6.40
2018-01-12T17:03:18.240Z,6.50
2018-01-12T17:05:45.757Z,6.60
2018-01-12T17:08:13.304Z,6.60
2018-01-12T17:10:40.832Z,6.50
2018-01-12T17:13:08.363Z,6.50
2018-01-12T17:15:35.930Z,6.50
2018-01-12T17:18:03.470Z,6.50
2018-01-12T17:20:31.051Z,6.50
2018-01-12T17:22:58.564Z,6.60
2018-01-12T17:25:26.503Z,6.60
2018-01-12T17:27:54.031Z,6.60
2018-01-12T17:30:21.602Z,6.40
2018-01-12T17:32:49.172Z,6.40
2018-01-12T17:35:17.624Z,6.50
2018-01-12T17:37:45.169Z,6.50
2018-01-12T17:40:12.727Z,6.50
2018-01-12T17:42:40.292Z,6.50
2018-01-12T17:45:07.849Z,6.50
2018-01-12T17:47:35.406Z,6.50
2018-01-12T17:50:02.928Z,6.50
2018-01-12T17:52:31.231Z,6.40
2018-01-12T17:54:58.759Z,6.40
2018-01-12T17:57:27.077Z,6.50
2018-01-12T17:59:54.603Z,6.50
2018-01-12T18:02:22.912Z,6.30
2018-01-12T18:04:50.496Z,6.30
2018-01-12T18:07:18.039Z,6.40
2018-01-12T18:09:45.660Z,6.40
2018-01-12T18:12:13.217Z,6.30
2018-01-12T18:14:41.565Z,6.40
2018-01-12T18:17:09.107Z,6.30
2018-01-12T18:19:36.710Z,6.40
2018-01-12T18:22:04.249Z,6.40
2018-01-12T18:24:31.790Z,6.40
2018-01-12T18:26:59.585Z,6.40
2018-01-12T18:29:27.165Z,6.40
2018-01-12T18:31:54.940Z,6.40
2018-01-12T18:34:22.504Z,6.40
2018-01-12T18:36:50.045Z,6.40
2018-01-12T18:39:18.128Z,6.50
2018-01-12T18:41:45.723Z,6.40
2018-01-12T18:44:13.273Z,6.40
2018-01-12T18:46:40.827Z,6.30
2018-01-12T18:49:08.360Z,6.40
2018-01-12T18:51:35.960Z,6.40
2018-01-12T18:54:03.548Z,6.40
2018-01-12T18:56:32.051Z,6.50
2018-01-12T18:59:00.018Z,6.50
2018-01-12T19:01:28.053Z,6.40
2018-01-12T19:03:55.585Z,6.40
2018-01-12T19:06:23.432Z,6.40
2018-01-12T19:08:51.444Z,6.30
2018-01-12T19:11:19.259Z,6.20
2018-01-12T19:13:46.849Z,6.20
2018-01-12T19:16:14.487Z,6.10
2018-01-12T19:18:42.762Z,6.10
2018-01-12T19:21:10.914Z,6.20
2018-01-12T19:23:38.593Z,6.10
2018-01-12T19:26:06.191Z,6.00
2018-01-12T19:28:33.886Z,6.00
2018-01-12T19:31:01.955Z,6.00
2018-01-12T19:33:29.522Z,5.90
2018-01-12T19:35:57.076Z,6.00
2018-01-12T19:38:24.604Z,5.90
2018-01-12T19:40:52.131Z,6.00
2018-01-12T19:43:19.693Z,5.90
2018-01-12T19:45:47.244Z,6.00
2018-01-12T19:48:15.307Z,5.90
2018-01-12T19:50:43.134Z,5.90
2018-01-12T19:53:10.866Z,5.90
2018-01-12T19:55:38.398Z,5.90
2018-01-12T19:58:05.943Z,5.90
2018-01-12T20:00:34.414Z,5.90
2018-01-12T20:03:02.189Z,5.80
2018-01-12T20:05:30.154Z,5.80
2018-01-12T20:07:57.983Z,5.70
2018-01-12T20:10:25.798Z,5.60
2018-01-12T20:12:53.458Z,5.60
2018-01-12T20:15:23.374Z,5.30
2018-01-12T20:17:51.395Z,5.40
2018-01-12T20:20:19.568Z,5.40
2018-01-12T20:22:48.523Z,5.50
2018-01-12T20:25:16.124Z,5.50
2018-01-12T20:27:43.778Z,5.50
2018-01-12T20:30:11.744Z,5.60
2018-01-12T20:32:39.988Z,5.50
2018-01-12T20:35:07.802Z,5.50
2018-01-12T20:37:35.640Z,5.70
2018-01-12T20:40:03.729Z,5.70
2018-01-12T20:42:33.474Z,5.60
2018-01-12T20:45:01.865Z,5.60
2018-01-12T20:47:29.468Z,5.50
2018-01-12T20:49:56.990Z,5.50
2018-01-12T20:52:25.446Z,5.50
2018-01-12T20:54:53.654Z,5.50
2018-01-12T20:57:21.244Z,5.60
2018-01-12T20:59:48.793Z,5.60
2018-01-12T21:02:17.682Z,5.70
2018-01-12T21:04:45.800Z,5.60
2018-01-12T21:07:14.271Z,5.50
2018-01-12T21:09:41.794Z,5.50
2018-01-12T21:12:09.825Z,5.60
2018-01-12T21:14:37.493Z,5.50
2018-01-12T21:17:06.226Z,5.70
2018-01-12T21:19:34.220Z,5.70
2018-01-12T21:22:02.939Z,5.70
2018-01-12T21:24:30.530Z,5.70
2018-01-12T21:26:58.072Z,5.60
2018-01-12T21:29:26.011Z,5.60
2018-01-12T21:31:54.355Z,5.60
2018-01-12T21:34:22.000Z,5.60
2018-01-12T21:36:49.546Z,5.70
2018-01-12T21:39:17.144Z,5.60
2018-01-12T21:41:44.687Z,5.60
2018-01-12T21:44:12.245Z,5.60
2018-01-12T21:46:39.849Z,5.60
2018-01-12T21:49:08.149Z,5.60
2018-01-12T21:51:35.880Z,5.60
2018-01-12T21:54:04.171Z,5.70
2018-01-12T21:56:32.481Z,5.60
2018-01-12T21:59:00.017Z,5.60
2018-01-12T22:01:27.882Z,5.60
2018-01-12T22:03:56.272Z,5.70
2018-01-12T22:06:23.867Z,5.70
2018-01-12T22:08:51.630Z,5.70
2018-01-12T22:11:19.216Z,5.60
2018-01-12T22:13:47.032Z,5.70
2018-01-12T22:16:15.359Z,5.80
2018-01-12T22:18:42.875Z,5.80
2018-01-12T22:21:10.486Z,5.80
2018-01-12T22:23:38.863Z,5.80
2018-01-12T22:26:06.631Z,5.80
2018-01-12T22:28:34.210Z,5.80
2018-01-12T22:31:02.660Z,5.80
2018-01-12T22:33:30.536Z,5.80
2018-01-12T22:35:58.265Z,5.80
2018-01-12T22:38:25.794Z,5.90
2018-01-12T22:40:53.413Z,5.80
2018-01-12T22:43:21.444Z,5.80
2018-01-12T22:45:49.028Z,5.90
2018-01-12T22:48:17.687Z,5.70
2018-01-12T22:50:45.269Z,5.70
2018-01-12T22:53:12.964Z,5.60
2018-01-12T22:55:41.643Z,5.70
2018-01-12T22:58:18.136Z,5.70
2018-01-12T23:00:46.545Z,5.70
2018-01-12T23:03:14.121Z,5.70
2018-01-12T23:05:42.142Z,5.80
2018-01-12T23:08:10.118Z,5.80
2018-01-12T23:10:37.853Z,5.80
2018-01-12T23:13:05.403Z,5.80
2018-01-12T23:15:33.044Z,5.70
2018-01-12T23:18:01.051Z,5.70
2018-01-12T23:20:28.881Z,5.80
2018-01-12T23:22:56.500Z,5.80
2018-01-12T23:25:24.105Z,5.80
2018-01-12T23:27:52.253Z,5.80
2018-01-12T23:30:20.100Z,5.80
2018-01-12T23:32:48.013Z,5.80
2018-01-12T23:35:15.570Z,5.80
2018-01-12T23:37:43.642Z,5.90
2018-01-12T23:40:11.494Z,5.80
2018-01-12T23:42:39.972Z,5.80
2018-01-12T23:45:07.953Z,5.80
2018-01-12T23:47:35.644Z,5.80
2018-01-12T23:50:03.640Z,5.80
2018-01-12T23:52:31.616Z,5.80
2018-01-12T23:54:59.301Z,5.70
2018-01-12T23:57:27.000Z,5.70
2018-01-12T23:59:54.936Z,5.70
